Sagehen Creek Weather observations

Data are for observation ending at time listed.
 Day   Time    Ave.   Ave.  Ave.  Vector   Max.   Stn.    Total    Solar   Ave.  
  of    of     Air    Rel.  Wind   Wind    Wind   Baro.  Precip.   Rad.    Soil  
Year   Day     Temp.  Hum.  Speed  Dir.    Gust   Pres.                    Temp. 
2014   (PST)    F      %     mph   deg.    mph     mb.     in.     W/m2     F   
------------------------------------------------------------------------------
 202   13:20  999.0   999  999.0   999    999.0   999.0   999.00     999    999.0
 202   13:30  999.0   999  999.0   999    999.0   999.0   999.00     999    999.0
 202   13:40  999.0   999  999.0   999    999.0   999.0   999.00     999    999.0
 202   13:50  999.0   999  999.0   999    999.0   999.0   999.00     999    999.0
 202   14:00  999.0   999  999.0   999    999.0   999.0   999.00     999    999.0
 202   14:10  999.0   999  999.0   999    999.0   999.0   999.00     999    999.0
 202   14:20  999.0   999  999.0   999    999.0   999.0   999.00     999    999.0
 202   14:30  999.0   999  999.0   999    999.0   999.0   999.00     999    999.0
 202   14:40  999.0   999  999.0   999    999.0   999.0   999.00     999    999.0
 202   14:50  999.0   999  999.0   999    999.0   999.0   999.00     999    999.0
 202   15:00  999.0   999  999.0   999    999.0   999.0   999.00     999    999.0
 202   15:10  999.0   999  999.0   999    999.0   999.0   999.00     999    999.0
 202   15:20  999.0   999  999.0   999    999.0   999.0   999.00     999    999.0
 202   15:30  999.0   999  999.0   999    999.0   999.0   999.00     999    999.0
 202   15:40  999.0   999  999.0   999    999.0   999.0   999.00     999    999.0
 202   15:50  999.0   999  999.0   999    999.0   999.0   999.00     999    999.0
 202   16:00  999.0   999  999.0   999    999.0   999.0   999.00     999    999.0
 202   16:10  999.0   999  999.0   999    999.0   999.0   999.00     999    999.0
 202   16:20  999.0   999  999.0   999    999.0   999.0   999.00     999    999.0
 202   16:30  999.0   999  999.0   999    999.0   999.0   999.00     999    999.0
 202   16:40  999.0   999  999.0   999    999.0   999.0   999.00     999    999.0
 202   16:50  999.0   999  999.0   999    999.0   999.0   999.00     999    999.0
 202   17:00  999.0   999  999.0   999    999.0   999.0   999.00     999    999.0
 202   17:10  999.0   999  999.0   999    999.0   999.0   999.00     999    999.0
 202   17:20  999.0   999  999.0   999    999.0   999.0   999.00     999    999.0
 202   17:30  999.0   999  999.0   999    999.0   999.0   999.00     999    999.0
 202   17:40  999.0   999  999.0   999    999.0   999.0   999.00     999    999.0
 202   17:50  999.0   999  999.0   999    999.0   999.0   999.00     999    999.0
 202   18:00  999.0   999  999.0   999    999.0   999.0   999.00     999    999.0
 202   18:10  999.0   999  999.0   999    999.0   999.0   999.00     999    999.0
 202   18:20  999.0   999  999.0   999    999.0   999.0   999.00     999    999.0
 202   18:30  999.0   999  999.0   999    999.0   999.0   999.00     999    999.0
 202   18:40  999.0   999  999.0   999    999.0   999.0   999.00     999    999.0
 202   18:50  999.0   999  999.0   999    999.0   999.0   999.00     999    999.0
 202   19:00  999.0   999  999.0   999    999.0   999.0   999.00     999    999.0
 202   19:10  999.0   999  999.0   999    999.0   999.0   999.00     999    999.0
 202   19:20  999.0   999  999.0   999    999.0   999.0   999.00     999    999.0
 202   19:30  999.0   999  999.0   999    999.0   999.0   999.00     999    999.0
 202   19:40  999.0   999  999.0   999    999.0   999.0   999.00     999    999.0
 202   19:50  999.0   999  999.0   999    999.0   999.0   999.00     999    999.0
 202   20:00  999.0   999  999.0   999    999.0   999.0   999.00     999    999.0
 202   20:10  999.0   999  999.0   999    999.0   999.0   999.00     999    999.0
 202   20:20  999.0   999  999.0   999    999.0   999.0   999.00     999    999.0
 202   20:30  999.0   999  999.0   999    999.0   999.0   999.00     999    999.0
 202   20:40  999.0   999  999.0   999    999.0   999.0   999.00     999    999.0
 202   20:50  999.0   999  999.0   999    999.0   999.0   999.00     999    999.0
 202   21:00  999.0   999  999.0   999    999.0   999.0   999.00     999    999.0
 202   21:10  999.0   999  999.0   999    999.0   999.0   999.00     999    999.0
 202   21:20  999.0   999  999.0   999    999.0   999.0   999.00     999    999.0
 202   21:30  999.0   999  999.0   999    999.0   999.0   999.00     999    999.0
 202   21:40  999.0   999  999.0   999    999.0   999.0   999.00     999    999.0
 202   21:50  999.0   999  999.0   999    999.0   999.0   999.00     999    999.0
 202   22:00  999.0   999  999.0   999    999.0   999.0   999.00     999    999.0
 202   22:10  999.0   999  999.0   999    999.0   999.0   999.00     999    999.0
 202   22:20  999.0   999  999.0   999    999.0   999.0   999.00     999    999.0
 202   22:30  999.0   999  999.0   999    999.0   999.0   999.00     999    999.0
 202   22:40  999.0   999  999.0   999    999.0   999.0   999.00     999    999.0
 202   22:50  999.0   999  999.0   999    999.0   999.0   999.00     999    999.0
 202   23:00  999.0   999  999.0   999    999.0   999.0   999.00     999    999.0
 202   23:10  999.0   999  999.0   999    999.0   999.0   999.00     999    999.0
 202   23:20  999.0   999  999.0   999    999.0   999.0   999.00     999    999.0
 202   23:30  999.0   999  999.0   999    999.0   999.0   999.00     999    999.0
 202   23:40  999.0   999  999.0   999    999.0   999.0   999.00     999    999.0
 202   23:50  999.0   999  999.0   999    999.0   999.0   999.00     999    999.0
 203    0:00  999.0   999  999.0   999    999.0   999.0   999.00     999    999.0
 203    0:10  999.0   999  999.0   999    999.0   999.0   999.00     999    999.0
 203    0:20  999.0   999  999.0   999    999.0   999.0   999.00     999    999.0
 203    0:30  999.0   999  999.0   999    999.0   999.0   999.00     999    999.0
 203    0:40  999.0   999  999.0   999    999.0   999.0   999.00     999    999.0
 203    0:50  999.0   999  999.0   999    999.0   999.0   999.00     999    999.0
 203    1:00  999.0   999  999.0   999    999.0   999.0   999.00     999    999.0
 203    1:10  999.0   999  999.0   999    999.0   999.0   999.00     999    999.0
 203    1:20  999.0   999  999.0   999    999.0   999.0   999.00     999    999.0
 203    1:30   43.8    92    0.0     0      0.0   839.3   10.48       0    999.0
 203    1:40   43.6    93    0.1   258      1.0   839.5   10.48       0    999.0
 203    1:50   43.3    93    0.3   270      1.3   839.5   10.48       0    999.0
 203    2:00   43.2    93    0.3   293      0.9   839.5   10.49       0    999.0
 203    2:10   43.1    93    0.2   247      0.8   839.7   10.49       0    999.0
 203    2:20   42.9    93    0.2   280      1.6   839.6   10.48       0    999.0
 203    2:30   42.8    93    0.1   267      0.7   839.5   10.48       0    999.0
 203    2:40   42.7    93    0.1   270      0.7   839.9   10.49       0    999.0
 203    2:50   42.6    94    0.4   261      1.2   839.6   10.48       0    999.0
 203    3:00   42.7    94    0.3   272      0.8   839.4   10.48       0    999.0
 203    3:10   42.7    94    0.2   253      1.1   839.7   10.49       0    999.0
 203    3:20   42.7    94    0.5   256      1.7   839.7   10.48       0    999.0
 203    3:30   42.7    94    0.2   268      0.8   839.7   10.48       0    999.0
 203    3:40   42.6    94    0.4   272      1.3   839.5   10.48       0    999.0
 203    3:50   42.7    94    0.6   272      1.5   839.6   10.49       0    999.0
 203    4:00   42.7    94    0.1   288      0.6   839.7   10.48       0    999.0
 203    4:10   42.7    94    0.3   275      1.1   839.3   10.49       0    999.0
 203    4:20   42.6    94    0.2   295      0.9   839.5   10.48       0    999.0
 203    4:30   42.5    94    0.2   263      0.7   839.7   10.49       0    999.0
 203    4:40   42.4    94    0.2   276      0.7   839.7   10.48       0    999.0
 203    4:50   42.4    94    0.4   264      0.8   839.5   10.48       1    999.0
 203    5:00   42.3    94    0.0   274      0.6   839.2   10.49       3    999.0
 203    5:10   42.3    94    0.0   278      0.3   839.4   10.48      11    999.0
 203    5:20   42.4    94    0.0     0      0.0   839.2   10.49      20    999.0
 203    5:30   42.5    94    0.1   276      0.9   839.1   10.48      23    999.0
 203    5:40   42.8    94    0.1   271      0.9   839.5   10.49      43    999.0
 203    5:50   43.2    94    0.2   272      1.2   839.6   10.49      53    999.0
 203    6:00   43.5    94    0.0   259      0.4   839.6   10.48      37    999.0
 203    6:10   43.7    94    0.0     0      0.0   839.7   10.49      41    999.0
 203    6:20   44.4    94    0.0     0      0.0   839.7   10.49     104    999.0
 203    6:30   45.4    94    0.2   261      0.9   839.7   10.48     103    999.0
 203    6:40   47.6    94    0.1    36      1.0   839.8   10.49     254    999.0
 203    6:50   49.9    91    0.0     0      0.0   839.8   10.49     187    999.0
 203    7:00   51.5    88    0.4    48      1.9   839.9   10.49     222    999.0
 203    7:10   53.4    86    0.6   152      2.1   839.7   10.49     213    999.0
 203    7:20   54.7    84    0.3   153      2.4   839.9   10.48     182    999.0
 203    7:30   55.7    82    0.6    87      3.2   840.1   10.48     170    999.0
 203    7:40   56.6    83    0.4   114      2.9   840.3   10.48     226    999.0
 203    7:50   58.1    77    2.1   100      4.2   840.1   10.48     336    999.0
 203    8:00   59.8    73    2.5    87      4.5   839.9   10.48     415    999.0
 203    8:10   61.8    68    2.0    80      4.5   840.0   10.48     360    999.0
 203    8:20   63.9    59    2.5   276      4.6   840.2   10.48     476    999.0
 203    8:30   65.4    56    1.7   297      3.6   840.3   10.48     495    999.0
 203    8:40   65.8    56    2.1   220      5.2   840.3   10.48     422    999.0
 203    8:50   66.0    52    2.7   284      6.7   840.1   10.48     456    999.0
 203    9:00   66.1    49    2.3   216      5.6   839.9   10.48     546    999.0
 203    9:10   67.4    47    2.1   274      4.8   839.8   10.48     665    999.0
 203    9:20   68.2    44    2.4   279      4.9   840.1   10.48     745    999.0
 203    9:30   68.5    39    2.8   270      5.9   840.4   10.48     684    999.0
 203    9:40   68.8    38    2.2   125      6.6   840.5   10.48     671    999.0
 203    9:50   68.6    38    2.1   250      5.9   840.4   10.48     629    999.0
 203   10:00   69.1    37    1.6   268      4.1   840.3   10.48     632    999.0
 203   10:10   69.4    35    1.5   236      3.5   840.2   10.48     670    999.0
 203   10:20   69.7    35    1.6   294      4.1   840.2   10.47     711    999.0
 203   10:30   70.3    35    2.4   247      6.5   840.2   10.47     779    999.0
 203   10:40   70.5    33    1.9   282      4.9   839.8   10.47     778    999.0
 203   10:50   71.1    33    2.1   224      4.6   839.7   10.47     829    999.0
 203   11:00   71.4    32    1.6   170      4.2   839.7   10.47     731    999.0
 203   11:10   71.8    32    2.2   117      5.8   840.1   10.47     735    999.0
 203   11:20   71.4    31    2.8   123      6.6   840.1   10.47     688    999.0
 203   11:30   70.6    30    3.7    95      7.3   840.1   10.47     619    999.0
 203   11:40   70.8    32    1.8   200      4.1   840.0   10.47     694    999.0
 203   11:50   72.1    30    2.4   256      5.1   839.9   10.47     690    999.0
 203   12:00   71.9    30    2.3   279      5.6   839.8   10.47     743    999.0
 203   12:10   72.5    32    2.1   181      5.4   840.0   10.47     733    999.0
 203   12:20   73.1    30    1.5   218      3.2   839.7   10.47     740    999.0
 203   12:30   73.3    28    1.9   226      4.8   839.5   10.47     622    999.0
 203   12:40   72.9    32    1.6   219      4.8   839.8   10.47     492    999.0
 203   12:50   72.6    29    1.9   212      6.4   839.8   10.47     506    999.0
 203   13:00   73.2    30    1.0   210      3.4   839.8   10.47     572    999.0
 203   13:10   73.7    28    1.6   296      3.3   839.7   10.47     521    999.0

Return to Sagehen Creek graphs page.


Western Regional Climate Center,wrcc@dri.edu